Time;durP1;ratioP1;P1;durP2;ratioP2;P2;SDS_P1;SDS_P2;PMS_P1;PMS_P2;Temp;Humidity;BMP_temperature;BMP_pressure;BME280_temperature;BME280_humidity;BME280_pressure;Samples;Min_cycle;Max_cycle;Signal;HPM_P1;HPM_P2
2023/12/08 00:00:53;;;;;;;28.75;4.00;;;9.10;99.90;;;;;;5133624;27;20031;-79
2023/12/08 00:03:19;;;;;;;22.52;3.78;;;9.10;99.90;;;;;;5134196;27;20091;-79
2023/12/08 00:05:44;;;;;;;17.83;3.17;;;9.10;99.90;;;;;;5134058;27;20159;-79
2023/12/08 00:08:10;;;;;;;20.20;3.58;;;9.10;99.90;;;;;;5115281;27;20030;-79
2023/12/08 00:10:35;;;;;;;22.13;3.63;;;9.10;99.90;;;;;;5115782;27;20138;-79
2023/12/08 00:13:01;;;;;;;24.80;4.30;;;9.10;99.90;;;;;;5132790;27;20031;-79
2023/12/08 00:15:27;;;;;;;17.75;3.20;;;9.10;99.90;;;;;;5134272;27;20333;-78
2023/12/08 00:17:53;;;;;;;21.60;4.07;;;9.10;99.90;;;;;;5133731;27;20472;-80
2023/12/08 00:20:18;;;;;;;21.00;3.58;;;9.10;99.90;;;;;;5134187;27;20027;-79
2023/12/08 00:22:44;;;;;;;22.05;3.97;;;9.10;99.90;;;;;;5134045;27;20114;-79
2023/12/08 00:25:11;;;;;;;19.83;4.00;;;9.20;99.90;;;;;;5133143;27;20024;-79
2023/12/08 00:27:36;;;;;;;16.73;3.47;;;9.30;99.90;;;;;;5134063;27;20045;-79
2023/12/08 00:30:03;;;;;;;19.63;3.97;;;9.20;99.90;;;;;;5132764;27;20086;-80
2023/12/08 00:32:28;;;;;;;22.75;3.72;;;9.20;99.90;;;;;;5115062;27;20396;-78
2023/12/08 00:34:55;;;;;;;24.08;3.70;;;9.30;99.90;;;;;;5133032;27;20051;-80
2023/12/08 00:37:21;;;;;;;20.60;3.33;;;9.30;99.90;;;;;;5133673;27;20020;-79
2023/12/08 00:39:46;;;;;;;24.92;4.03;;;9.20;99.90;;;;;;5115001;27;20079;-79
2023/12/08 00:42:12;;;;;;;20.42;4.45;;;9.20;99.90;;;;;;5114570;27;20023;-80
2023/12/08 00:44:38;;;;;;;24.08;4.28;;;9.20;99.90;;;;;;5133375;27;20468;-80
2023/12/08 00:47:04;;;;;;;18.38;3.38;;;9.20;99.90;;;;;;5132983;27;20027;-80
2023/12/08 00:49:30;;;;;;;23.95;3.88;;;9.20;99.90;;;;;;5133138;27;20026;-80
2023/12/08 00:51:56;;;;;;;22.63;3.78;;;9.20;99.90;;;;;;5132787;27;20023;-80
2023/12/08 00:54:22;;;;;;;21.33;4.40;;;9.20;99.90;;;;;;5132944;27;20180;-79
2023/12/08 00:56:47;;;;;;;23.20;4.03;;;9.20;99.90;;;;;;5114427;27;20050;-79
2023/12/08 00:59:13;;;;;;;26.90;4.28;;;9.20;99.90;;;;;;5132063;27;20034;-79
2023/12/08 01:01:39;;;;;;;18.95;3.40;;;9.20;99.90;;;;;;5114319;27;20042;-79
2023/12/08 01:04:04;;;;;;;20.60;3.80;;;9.20;99.90;;;;;;5131953;27;20041;-79
2023/12/08 01:06:30;;;;;;;26.17;4.13;;;9.20;99.90;;;;;;5133135;27;20027;-79
2023/12/08 01:08:56;;;;;;;20.67;3.65;;;9.10;99.90;;;;;;5132638;27;20055;-80
2023/12/08 01:11:21;;;;;;;14.70;3.55;;;9.20;99.90;;;;;;5132989;27;20043;-79
2023/12/08 01:13:47;;;;;;;18.45;2.97;;;9.10;99.90;;;;;;5132604;27;20109;-79
2023/12/08 01:16:13;;;;;;;19.25;3.30;;;9.10;99.90;;;;;;5113770;27;20019;-79
2023/12/08 01:18:39;;;;;;;19.48;3.50;;;9.20;99.90;;;;;;5132719;27;20023;-79
2023/12/08 01:21:05;;;;;;;22.85;3.60;;;9.10;99.90;;;;;;5113734;27;20182;-79
2023/12/08 01:23:31;;;;;;;25.08;3.90;;;9.10;99.90;;;;;;5132563;27;20354;-79
2023/12/08 01:25:56;;;;;;;24.98;4.32;;;9.10;99.90;;;;;;5132244;27;20054;-81
2023/12/08 01:28:22;;;;;;;21.80;4.05;;;9.10;99.90;;;;;;5132668;27;20031;-79
2023/12/08 01:30:48;;;;;;;21.90;3.55;;;9.10;99.90;;;;;;5132243;27;20365;-80
2023/12/08 01:33:13;;;;;;;22.90;3.78;;;9.10;99.90;;;;;;5131663;27;20027;-80
2023/12/08 01:35:39;;;;;;;18.27;3.45;;;9.10;99.90;;;;;;5113928;27;20444;-79
2023/12/08 01:38:05;;;;;;;22.60;3.58;;;9.10;99.90;;;;;;5131586;27;20023;-78
2023/12/08 01:40:30;;;;;;;22.38;4.28;;;9.10;99.90;;;;;;5133176;27;20103;-78
2023/12/08 01:42:56;;;;;;;25.23;4.85;;;9.00;99.90;;;;;;5131848;27;20019;-79
2023/12/08 01:45:22;;;;;;;23.38;4.25;;;9.00;99.90;;;;;;5132387;27;20026;-79
2023/12/08 01:47:49;;;;;;;24.60;4.50;;;9.00;99.90;;;;;;5132694;27;20380;-79
2023/12/08 01:50:17;;;;;;;32.25;4.07;;;9.00;99.90;;;;;;5131524;27;20038;-79
2023/12/08 01:52:44;;;;;;;25.70;4.78;;;9.00;99.90;;;;;;5132861;27;20019;-79
2023/12/08 01:55:11;;;;;;;28.55;3.95;;;9.00;99.90;;;;;;5132186;27;20110;-79
2023/12/08 01:57:37;;;;;;;16.83;3.50;;;8.90;99.90;;;;;;5131869;27;20047;-79
2023/12/08 02:00:03;;;;;;;26.25;3.60;;;8.90;99.90;;;;;;5131326;27;20023;-79
2023/12/08 02:02:29;;;;;;;16.95;3.17;;;8.90;99.90;;;;;;5131987;27;20031;-79
2023/12/08 02:04:58;;;;;;;27.42;4.53;;;8.90;99.90;;;;;;5131915;27;20106;-80
2023/12/08 02:07:25;;;;;;;21.85;4.32;;;8.90;99.90;;;;;;5131866;27;20042;-80
2023/12/08 02:09:51;;;;;;;20.95;3.70;;;8.90;99.90;;;;;;5113350;27;20023;-80
2023/12/08 02:12:17;;;;;;;22.10;3.67;;;9.00;99.90;;;;;;5131385;27;20486;-80
2023/12/08 02:14:43;;;;;;;21.40;3.95;;;9.00;99.90;;;;;;5132163;27;20070;-80
2023/12/08 02:17:18;;;;;;;22.35;3.63;;;8.90;99.90;;;;;;5131276;27;20051;-80
2023/12/08 02:19:45;;;;;;;26.05;3.95;;;8.90;99.90;;;;;;5132160;27;20431;-80
2023/12/08 02:22:10;;;;;;;21.10;3.58;;;9.00;99.90;;;;;;5131260;27;20035;-78
2023/12/08 02:24:36;;;;;;;17.60;3.88;;;9.00;99.90;;;;;;5113319;28;20023;-79
2023/12/08 02:27:02;;;;;;;25.23;4.05;;;9.00;99.90;;;;;;5131160;28;20472;-80
2023/12/08 02:29:28;;;;;;;19.52;3.33;;;9.00;99.90;;;;;;5131652;28;20034;-79
2023/12/08 02:32:18;;;;;;;21.20;3.50;;;9.00;99.90;;;;;;5131587;28;20031;-79
2023/12/08 02:34:45;;;;;;;15.05;3.25;;;9.00;99.90;;;;;;5113790;28;20356;-80
2023/12/08 02:37:14;;;;;;;18.27;3.00;;;9.00;99.90;;;;;;5134882;27;20444;-81
2023/12/08 02:39:42;;;;;;;19.08;3.38;;;9.00;99.90;;;;;;5137001;27;20027;-81
2023/12/08 02:42:08;;;;;;;17.85;3.20;;;9.00;99.90;;;;;;5135666;27;20113;-80
2023/12/08 02:44:34;;;;;;;18.40;3.75;;;9.00;99.90;;;;;;5135735;27;20160;-79
2023/12/08 02:47:00;;;;;;;18.05;3.42;;;9.00;99.90;;;;;;5136281;27;20472;-80
2023/12/08 02:49:25;;;;;;;18.98;3.45;;;9.00;99.90;;;;;;5134982;27;20046;-80
2023/12/08 02:51:51;;;;;;;20.10;3.53;;;8.90;99.90;;;;;;5136002;27;20057;-80
2023/12/08 02:54:17;;;;;;;20.33;3.67;;;8.90;99.90;;;;;;5135157;27;20030;-80
2023/12/08 02:56:42;;;;;;;15.02;2.63;;;8.90;99.90;;;;;;5135627;27;20063;-80
2023/12/08 02:59:08;;;;;;;14.75;3.42;;;8.90;99.90;;;;;;5135111;27;20023;-80
2023/12/08 03:01:34;;;;;;;18.98;2.67;;;8.90;99.90;;;;;;5135404;27;20449;-81
2023/12/08 03:03:59;;;;;;;17.55;4.10;;;8.90;99.90;;;;;;5135238;27;20035;-80
2023/12/08 03:06:25;;;;;;;12.50;2.53;;;8.90;99.90;;;;;;5115982;27;20507;-79
2023/12/08 03:08:51;;;;;;;16.80;3.25;;;8.90;99.90;;;;;;5135182;27;20019;-79
2023/12/08 03:11:16;;;;;;;19.63;2.67;;;8.90;99.90;;;;;;5134909;27;20472;-80
2023/12/08 03:13:42;;;;;;;14.60;3.08;;;8.90;99.90;;;;;;5135209;27;20023;-79
2023/12/08 03:16:08;;;;;;;18.50;3.85;;;8.90;99.90;;;;;;5134454;27;20034;-80
2023/12/08 03:18:33;;;;;;;13.73;2.55;;;8.90;99.90;;;;;;5134868;27;20091;-80
2023/12/08 03:20:59;;;;;;;18.63;3.22;;;8.90;99.90;;;;;;5134847;27;20020;-79
2023/12/08 03:23:25;;;;;;;18.85;3.00;;;8.90;99.90;;;;;;5134239;27;20593;-79
2023/12/08 03:25:50;;;;;;;17.52;2.72;;;8.90;99.90;;;;;;5135134;27;20023;-80
2023/12/08 03:28:16;;;;;;;18.92;3.05;;;8.90;99.90;;;;;;5134458;27;20452;-80
2023/12/08 03:30:42;;;;;;;14.30;3.15;;;8.90;99.90;;;;;;5134926;27;20023;-80
2023/12/08 03:33:07;;;;;;;15.95;2.97;;;9.00;99.90;;;;;;5134086;27;20102;-81
2023/12/08 03:35:33;;;;;;;17.52;3.00;;;8.90;99.90;;;;;;5134437;27;20449;-79
2023/12/08 03:37:59;;;;;;;18.65;3.55;;;8.90;99.90;;;;;;5134594;27;20103;-80
2023/12/08 03:40:25;;;;;;;16.13;3.50;;;8.90;99.90;;;;;;5134046;27;20023;-79
2023/12/08 03:42:50;;;;;;;20.63;3.15;;;8.90;99.90;;;;;;5134462;27;20020;-79
2023/12/08 03:45:16;;;;;;;15.75;2.90;;;8.90;99.90;;;;;;5134232;27;20102;-79
2023/12/08 03:47:42;;;;;;;17.55;3.92;;;8.90;99.90;;;;;;5134435;27;20379;-78
2023/12/08 03:50:08;;;;;;;17.67;3.53;;;8.90;99.90;;;;;;5133926;27;20054;-79
2023/12/08 03:52:33;;;;;;;18.13;3.08;;;8.90;99.90;;;;;;5135261;27;20377;-79
2023/12/08 03:54:59;;;;;;;9.70;2.55;;;8.90;99.90;;;;;;5134741;27;20090;-79
2023/12/08 03:57:25;;;;;;;23.50;3.55;;;8.80;99.90;;;;;;5114995;27;20617;-79
2023/12/08 03:59:52;;;;;;;18.08;3.20;;;8.90;99.90;;;;;;5117088;27;20061;-78
2023/12/08 04:02:18;;;;;;;18.38;3.60;;;8.90;99.90;;;;;;5134440;27;20028;-79
2023/12/08 04:04:43;;;;;;;15.75;3.15;;;8.90;99.90;;;;;;5134870;27;20328;-79
2023/12/08 04:07:09;;;;;;;19.25;3.28;;;8.90;99.90;;;;;;5134414;27;20110;-79
2023/12/08 04:09:35;;;;;;;22.02;3.20;;;8.90;99.90;;;;;;5135617;27;20051;-78
2023/12/08 04:12:00;;;;;;;14.00;2.78;;;8.90;99.90;;;;;;5116499;27;20049;-78
2023/12/08 04:14:26;;;;;;;18.73;3.53;;;8.90;99.90;;;;;;5115169;27;20027;-78
2023/12/08 04:16:52;;;;;;;13.73;3.30;;;8.90;99.90;;;;;;5146937;27;20078;-77
2023/12/08 04:19:19;;;;;;;25.50;4.18;;;8.90;99.90;;;;;;5140222;27;20439;-77
2023/12/08 04:21:45;;;;;;;16.77;3.10;;;8.90;99.90;;;;;;5118116;27;20031;-78
2023/12/08 04:24:11;;;;;;;16.08;2.88;;;9.00;99.90;;;;;;5133941;27;20082;-78
2023/12/08 04:26:36;;;;;;;14.50;3.28;;;9.00;99.90;;;;;;5134093;27;20111;-78
2023/12/08 04:29:02;;;;;;;19.45;3.65;;;9.10;99.90;;;;;;5133474;27;20378;-78
2023/12/08 04:31:28;;;;;;;19.50;3.15;;;9.10;99.90;;;;;;5133320;27;20673;-78
2023/12/08 04:33:53;;;;;;;21.27;3.15;;;9.10;99.90;;;;;;5133721;27;20027;-78
2023/12/08 04:36:19;;;;;;;14.02;2.50;;;9.10;99.90;;;;;;5132918;27;20023;-78
2023/12/08 04:38:45;;;;;;;22.65;3.70;;;9.10;99.90;;;;;;5133695;27;20030;-78
2023/12/08 04:41:10;;;;;;;17.92;3.72;;;9.10;99.90;;;;;;5133174;27;20027;-78
2023/12/08 04:43:36;;;;;;;17.27;3.25;;;9.10;99.90;;;;;;5133525;27;20059;-79
2023/12/08 04:46:02;;;;;;;19.45;3.10;;;9.10;99.90;;;;;;5134076;27;20058;-79
2023/12/08 04:48:28;;;;;;;15.82;3.67;;;9.10;99.90;;;;;;5114243;27;20128;-79
2023/12/08 04:50:54;;;;;;;23.58;3.85;;;9.10;99.90;;;;;;5133008;27;20044;-78
2023/12/08 04:53:20;;;;;;;14.27;2.72;;;9.10;99.90;;;;;;5132016;27;20028;-79
2023/12/08 04:55:46;;;;;;;17.02;3.00;;;9.10;99.90;;;;;;5132635;27;20043;-79
2023/12/08 04:58:12;;;;;;;22.73;3.17;;;9.10;99.90;;;;;;5131963;27;20042;-80
2023/12/08 05:00:38;;;;;;;20.60;3.40;;;9.00;99.90;;;;;;5132874;27;20063;-79
2023/12/08 05:03:03;;;;;;;21.10;3.70;;;9.00;99.90;;;;;;5132917;27;20076;-79
2023/12/08 05:05:29;;;;;;;23.55;3.83;;;9.00;99.90;;;;;;5113761;27;20452;-79
2023/12/08 05:07:55;;;;;;;17.02;3.22;;;9.00;99.90;;;;;;5133114;27;20084;-79
2023/12/08 05:10:21;;;;;;;22.08;4.13;;;8.90;99.90;;;;;;5114425;27;20468;-79
2023/12/08 05:12:47;;;;;;;16.08;3.15;;;8.90;99.90;;;;;;5133172;27;20019;-79
2023/12/08 05:15:13;;;;;;;19.73;3.47;;;8.80;99.90;;;;;;5132019;27;20354;-80
2023/12/08 05:17:39;;;;;;;19.48;3.67;;;8.90;99.90;;;;;;5132663;27;20033;-80
2023/12/08 05:20:05;;;;;;;19.70;3.58;;;8.90;99.90;;;;;;5133022;27;20060;-79
2023/12/08 05:22:31;;;;;;;12.90;3.78;;;8.90;99.90;;;;;;5131891;27;20021;-80
2023/12/08 05:24:57;;;;;;;19.85;3.40;;;8.90;99.90;;;;;;5132800;27;20105;-79
2023/12/08 05:27:23;;;;;;;15.43;3.08;;;8.90;99.90;;;;;;5114382;27;20027;-80
2023/12/08 05:29:48;;;;;;;19.08;3.33;;;8.90;99.90;;;;;;5133424;27;20460;-79
2023/12/08 05:32:14;;;;;;;19.75;3.92;;;8.90;99.90;;;;;;5132029;27;20030;-80
2023/12/08 05:34:40;;;;;;;25.15;3.72;;;8.90;99.90;;;;;;5132589;27;20042;-79
2023/12/08 05:37:06;;;;;;;17.38;3.08;;;9.00;99.90;;;;;;5132081;27;20069;-79
2023/12/08 05:39:32;;;;;;;24.75;3.45;;;8.90;99.90;;;;;;5131798;27;20047;-80
2023/12/08 05:42:00;;;;;;;20.73;3.92;;;8.90;99.90;;;;;;5132316;27;20027;-79
2023/12/08 05:44:26;;;;;;;19.15;3.25;;;8.90;99.90;;;;;;5131531;27;20027;-80
2023/12/08 05:46:52;;;;;;;16.42;3.35;;;8.90;99.90;;;;;;5132519;27;20048;-80
2023/12/08 05:49:17;;;;;;;17.33;2.97;;;8.90;99.90;;;;;;5131046;27;20034;-80
2023/12/08 05:51:44;;;;;;;19.25;3.78;;;9.00;99.90;;;;;;5113518;27;20023;-79
2023/12/08 05:54:10;;;;;;;17.27;2.78;;;9.00;99.90;;;;;;5132258;27;20019;-80
2023/12/08 05:56:35;;;;;;;18.42;3.05;;;9.00;99.90;;;;;;5131613;27;20051;-79
2023/12/08 05:59:02;;;;;;;23.25;3.80;;;9.00;99.90;;;;;;5113992;27;20027;-79
2023/12/08 06:01:28;;;;;;;18.63;3.70;;;9.10;99.90;;;;;;5131587;27;20019;-80
2023/12/08 06:03:54;;;;;;;19.38;3.25;;;9.10;99.90;;;;;;5131774;27;20120;-80
2023/12/08 06:06:21;;;;;;;17.15;3.33;;;9.20;99.90;;;;;;5131127;27;20319;-81
2023/12/08 06:08:46;;;;;;;20.52;4.03;;;9.10;99.90;;;;;;5131719;27;20043;-79
2023/12/08 06:11:12;;;;;;;15.57;3.53;;;9.20;99.90;;;;;;5130562;27;20030;-79
2023/12/08 06:13:38;;;;;;;21.13;3.75;;;9.10;99.90;;;;;;5131003;27;20027;-79
2023/12/08 06:16:05;;;;;;;15.95;3.10;;;9.10;99.90;;;;;;5131593;27;20356;-79
2023/12/08 06:18:30;;;;;;;15.80;2.88;;;9.10;99.90;;;;;;5112207;28;20027;-78
2023/12/08 06:20:57;;;;;;;14.55;3.20;;;9.20;99.90;;;;;;5112984;28;20376;-79
2023/12/08 06:23:23;;;;;;;18.50;3.10;;;9.20;99.90;;;;;;5130506;27;20035;-79
2023/12/08 06:25:49;;;;;;;16.95;3.28;;;9.20;99.90;;;;;;5113051;28;20401;-79
2023/12/08 06:28:15;;;;;;;15.40;2.60;;;9.10;99.90;;;;;;5131598;28;20159;-79
2023/12/08 06:30:40;;;;;;;20.17;2.90;;;9.20;99.90;;;;;;5131304;28;20019;-78
2023/12/08 06:33:06;;;;;;;18.42;3.17;;;9.20;99.90;;;;;;5131397;28;20034;-78
2023/12/08 06:35:32;;;;;;;21.75;3.42;;;9.20;99.90;;;;;;5130400;28;20031;-78
2023/12/08 06:37:57;;;;;;;20.15;3.58;;;9.10;99.90;;;;;;5131493;28;20019;-78
2023/12/08 06:40:23;;;;;;;19.83;3.60;;;9.10;99.90;;;;;;5131161;28;20019;-79
2023/12/08 06:42:49;;;;;;;15.82;3.22;;;9.10;99.90;;;;;;5131487;28;20037;-79
2023/12/08 06:45:15;;;;;;;18.60;3.35;;;9.10;99.90;;;;;;5131459;28;20081;-78
2023/12/08 06:47:40;;;;;;;14.30;2.33;;;9.10;99.90;;;;;;5130851;28;20102;-78
2023/12/08 06:50:06;;;;;;;18.08;3.65;;;9.10;99.90;;;;;;5112736;28;20076;-78
2023/12/08 06:52:32;;;;;;;13.25;3.28;;;9.10;99.90;;;;;;5130431;28;20366;-79
2023/12/08 06:54:58;;;;;;;18.70;3.17;;;9.20;99.90;;;;;;5130691;28;20041;-78
2023/12/08 06:57:24;;;;;;;15.38;3.45;;;9.20;99.90;;;;;;5130704;27;20485;-79
2023/12/08 06:59:49;;;;;;;15.90;3.35;;;9.20;99.90;;;;;;5131617;28;20038;-79
2023/12/08 07:02:15;;;;;;;16.70;3.70;;;9.20;99.90;;;;;;5112794;28;20031;-78
2023/12/08 07:04:41;;;;;;;17.90;3.92;;;9.30;99.90;;;;;;5130233;28;20038;-78
2023/12/08 07:07:07;;;;;;;19.55;4.53;;;9.30;99.90;;;;;;5131052;28;20118;-78
2023/12/08 07:09:32;;;;;;;24.15;4.10;;;9.30;99.90;;;;;;5130476;28;20031;-78
2023/12/08 07:11:58;;;;;;;21.88;3.67;;;9.40;99.90;;;;;;5131060;28;20428;-78
2023/12/08 07:14:24;;;;;;;21.40;3.63;;;9.40;99.90;;;;;;5130430;28;20038;-79
2023/12/08 07:16:50;;;;;;;22.05;4.30;;;9.40;99.90;;;;;;5130718;28;20023;-78
2023/12/08 07:19:15;;;;;;;26.35;4.00;;;9.40;99.90;;;;;;5131046;28;20435;-78
2023/12/08 07:21:42;;;;;;;23.17;4.15;;;9.50;99.90;;;;;;5131654;27;20482;-79
2023/12/08 07:24:08;;;;;;;22.13;4.50;;;9.40;99.90;;;;;;5134968;27;20560;-79
2023/12/08 07:26:34;;;;;;;19.17;3.97;;;9.40;99.90;;;;;;5134454;27;20023;-78
2023/12/08 07:29:00;;;;;;;19.38;4.32;;;9.50;99.90;;;;;;5134581;27;20041;-79
2023/12/08 07:31:25;;;;;;;15.90;3.67;;;9.50;99.90;;;;;;5134712;27;20053;-78
2023/12/08 07:33:51;;;;;;;24.17;4.47;;;9.50;99.90;;;;;;5134727;27;20047;-79
2023/12/08 07:36:18;;;;;;;20.23;3.60;;;9.50;99.90;;;;;;5134685;27;20050;-79
2023/12/08 07:38:44;;;;;;;20.70;3.72;;;9.50;99.90;;;;;;5115956;27;20118;-79
2023/12/08 07:41:10;;;;;;;26.60;5.13;;;9.50;99.90;;;;;;5135017;27;20023;-79
2023/12/08 07:43:36;;;;;;;16.33;3.40;;;9.50;99.90;;;;;;5133944;27;20440;-78
2023/12/08 07:46:02;;;;;;;16.25;3.45;;;9.50;99.90;;;;;;5134239;27;20054;-79
2023/12/08 07:48:28;;;;;;;22.52;4.70;;;9.50;99.90;;;;;;5133948;27;20531;-78
2023/12/08 07:50:54;;;;;;;19.13;3.50;;;9.50;99.90;;;;;;5134415;27;20145;-79
2023/12/08 07:53:20;;;;;;;20.98;4.00;;;9.50;99.90;;;;;;5115520;27;20259;-80
2023/12/08 07:55:45;;;;;;;16.27;3.45;;;9.50;99.90;;;;;;5133268;27;20227;-79
2023/12/08 07:58:11;;;;;;;25.85;3.92;;;9.50;99.90;;;;;;5134044;27;20123;-79
2023/12/08 08:00:37;;;;;;;19.23;3.70;;;9.50;99.90;;;;;;5115172;27;20023;-80
2023/12/08 08:03:04;;;;;;;28.98;4.15;;;9.50;99.90;;;;;;5134031;27;20053;-79
2023/12/08 08:05:30;;;;;;;19.20;4.45;;;9.50;99.90;;;;;;5133762;27;20026;-80
2023/12/08 08:07:56;;;;;;;23.25;3.97;;;9.50;99.90;;;;;;5133848;27;20027;-78
2023/12/08 08:10:22;;;;;;;19.13;4.05;;;9.50;99.90;;;;;;5133535;27;20372;-81
2023/12/08 08:12:48;;;;;;;19.80;3.45;;;9.60;99.90;;;;;;5133862;27;20136;-79
2023/12/08 08:15:14;;;;;;;22.10;4.55;;;9.50;99.90;;;;;;5115373;27;20031;-79
2023/12/08 08:17:40;;;;;;;16.67;3.30;;;9.50;99.90;;;;;;5133043;27;20092;-79
2023/12/08 08:20:07;;;;;;;24.55;4.15;;;9.50;99.90;;;;;;5133702;27;20367;-80
2023/12/08 08:22:33;;;;;;;19.92;4.00;;;9.50;99.90;;;;;;5132958;27;20031;-79
2023/12/08 08:25:01;;;;;;;16.65;3.80;;;9.60;99.90;;;;;;5133401;27;20028;-79
2023/12/08 08:27:28;;;;;;;19.23;4.65;;;9.70;99.90;;;;;;5132952;27;20126;-80
2023/12/08 08:29:54;;;;;;;19.02;3.45;;;9.70;99.90;;;;;;5134137;27;20019;-79
2023/12/08 08:32:20;;;;;;;23.70;3.38;;;9.70;99.90;;;;;;5133101;27;20027;-79
2023/12/08 08:34:46;;;;;;;18.63;3.63;;;9.70;99.90;;;;;;5132071;27;20031;-77
2023/12/08 08:37:12;;;;;;;13.50;3.17;;;9.70;99.90;;;;;;5133163;27;20107;-77
2023/12/08 08:39:37;;;;;;;18.88;3.38;;;9.70;99.90;;;;;;5132788;27;20051;-78
2023/12/08 08:42:03;;;;;;;19.67;3.90;;;9.80;99.90;;;;;;5133836;27;20038;-78
2023/12/08 08:44:29;;;;;;;21.17;3.83;;;9.80;99.90;;;;;;5132393;27;20035;-78
2023/12/08 08:46:55;;;;;;;17.63;3.50;;;9.70;99.90;;;;;;5133596;27;20061;-79
2023/12/08 08:49:22;;;;;;;22.38;3.55;;;9.70;99.90;;;;;;5133137;27;20059;-78
2023/12/08 08:51:48;;;;;;;17.10;3.20;;;9.80;99.90;;;;;;5132583;27;20049;-79
2023/12/08 08:54:13;;;;;;;19.02;4.18;;;9.80;99.90;;;;;;5132996;27;20057;-78
2023/12/08 08:56:39;;;;;;;23.25;3.92;;;9.80;99.90;;;;;;5132070;27;20519;-77
2023/12/08 08:59:05;;;;;;;20.10;3.92;;;9.80;99.90;;;;;;5133241;27;20119;-78
2023/12/08 09:01:30;;;;;;;16.35;3.63;;;9.70;99.90;;;;;;5132045;27;20046;-79
2023/12/08 09:03:56;;;;;;;17.98;4.38;;;9.80;99.90;;;;;;5132595;27;20027;-79
2023/12/08 09:06:22;;;;;;;16.65;3.53;;;9.70;99.90;;;;;;5132855;27;20030;-78
2023/12/08 09:08:47;;;;;;;19.20;4.10;;;9.70;99.90;;;;;;5132565;27;20366;-80
2023/12/08 09:11:13;;;;;;;22.10;4.03;;;9.60;99.90;;;;;;5133070;27;20015;-79
2023/12/08 09:13:39;;;;;;;23.23;4.03;;;9.60;99.90;;;;;;5132979;27;20344;-79
2023/12/08 09:16:05;;;;;;;19.40;3.53;;;9.50;99.90;;;;;;5133887;27;20057;-78
2023/12/08 09:18:32;;;;;;;16.45;3.45;;;9.50;99.90;;;;;;5132405;27;20471;-79
2023/12/08 09:20:58;;;;;;;19.42;4.43;;;9.50;99.90;;;;;;5132578;27;20023;-78
2023/12/08 09:23:24;;;;;;;23.48;3.95;;;9.50;99.90;;;;;;5093727;28;20085;-78
2023/12/08 09:25:49;;;;;;;18.98;3.67;;;9.40;99.90;;;;;;5111659;28;20032;-79
2023/12/08 09:28:17;;;;;;;11.98;4.13;;;9.40;99.90;;;;;;5111921;28;20455;-78
2023/12/08 09:30:43;;;;;;;18.30;3.95;;;9.40;99.90;;;;;;5112355;28;20175;-78
2023/12/08 09:33:09;;;;;;;21.25;4.50;;;9.40;99.90;;;;;;5111698;28;20128;-78
2023/12/08 09:35:35;;;;;;;27.05;3.70;;;9.40;99.90;;;;;;5111182;28;20132;-79
2023/12/08 09:38:01;;;;;;;27.98;4.65;;;9.40;99.90;;;;;;5111661;28;20161;-79
2023/12/08 09:40:28;;;;;;;19.50;3.90;;;9.40;99.90;;;;;;5111381;28;20073;-80
2023/12/08 09:43:27;;;;;;;22.30;3.60;;;9.40;99.90;;;;;;5111608;28;20466;-80
2023/12/08 09:45:54;;;;;;;22.23;4.28;;;9.40;99.90;;;;;;5087829;28;20052;-80
2023/12/08 09:48:23;;;;;;;18.48;3.97;;;9.50;99.90;;;;;;5112042;28;20149;-80
2023/12/08 09:50:50;;;;;;;19.75;3.58;;;9.40;99.90;;;;;;5110821;28;20023;-79
2023/12/08 09:53:17;;;;;;;24.23;4.55;;;9.40;99.90;;;;;;5111468;28;20096;-82
2023/12/08 09:55:46;;;;;;;14.60;3.58;;;9.50;99.90;;;;;;5112269;28;20106;-80
2023/12/08 09:58:12;;;;;;;20.80;3.80;;;9.50;99.90;;;;;;5094471;28;20031;-80
2023/12/08 10:00:39;;;;;;;18.35;3.20;;;9.50;99.90;;;;;;5093718;28;20055;-81
2023/12/08 10:03:04;;;;;;;20.17;3.83;;;9.50;99.90;;;;;;5110749;28;20027;-79
2023/12/08 10:05:30;;;;;;;16.65;3.58;;;9.50;99.90;;;;;;5111126;28;20090;-80
2023/12/08 10:07:59;;;;;;;24.95;3.88;;;9.60;99.90;;;;;;5110926;28;20429;-81
2023/12/08 10:10:25;;;;;;;21.30;3.17;;;9.70;99.90;;;;;;5111459;28;20028;-80
2023/12/08 10:12:52;;;;;;;23.50;3.33;;;9.70;99.90;;;;;;5111596;28;20019;-81
2023/12/08 10:15:18;;;;;;;19.88;3.90;;;9.70;99.90;;;;;;5114313;28;20028;-81
2023/12/08 10:17:49;;;;;;;19.35;3.53;;;9.80;99.90;;;;;;5111693;28;20107;-81
2023/12/08 10:20:15;;;;;;;19.33;3.17;;;9.80;99.90;;;;;;5112983;28;20032;-82
2023/12/08 10:22:56;;;;;;;18.50;3.70;;;9.80;99.90;;;;;;5111426;28;20023;-79
2023/12/08 10:25:24;;;;;;;18.27;3.88;;;9.80;99.90;;;;;;5112553;28;20118;-80
2023/12/08 10:27:54;;;;;;;10.18;2.78;;;9.80;99.90;;;;;;5092276;28;20039;-80
2023/12/08 10:30:23;;;;;;;13.80;3.28;;;9.90;99.90;;;;;;5111237;28;20039;-80
2023/12/08 10:32:49;;;;;;;20.98;3.05;;;9.90;99.90;;;;;;5110808;28;20028;-80
2023/12/08 10:35:16;;;;;;;18.30;3.15;;;9.80;99.90;;;;;;5110969;28;20346;-81
2023/12/08 10:37:44;;;;;;;17.38;3.58;;;9.90;99.90;;;;;;5110508;28;20023;-80
2023/12/08 10:40:12;;;;;;;15.88;2.92;;;9.80;99.90;;;;;;5111263;28;20057;-80
2023/12/08 10:42:38;;;;;;;12.95;3.20;;;9.80;99.90;;;;;;5110691;28;20028;-81
2023/12/08 10:45:11;;;;;;;13.35;3.33;;;9.80;99.90;;;;;;5092733;28;20412;-80
2023/12/08 10:47:41;;;;;;;15.18;3.15;;;9.80;99.90;;;;;;5110975;28;20141;-79
2023/12/08 10:50:11;;;;;;;17.45;2.97;;;9.70;99.90;;;;;;5111312;28;20115;-80
2023/12/08 10:52:38;;;;;;;15.15;3.65;;;9.70;99.90;;;;;;5110728;28;20111;-80
2023/12/08 10:55:14;;;;;;;14.80;2.75;;;9.70;99.90;;;;;;5111331;28;20118;-80
2023/12/08 10:57:42;;;;;;;9.75;2.35;;;9.70;99.90;;;;;;5113533;28;20083;-81
2023/12/08 11:00:19;;;;;;;11.10;2.53;;;9.70;99.90;;;;;;5096646;28;20023;-79
2023/12/08 11:02:48;;;;;;;14.95;2.58;;;9.70;99.90;;;;;;5114529;28;20111;-78
2023/12/08 11:05:37;;;;;;;10.35;2.53;;;9.80;99.90;;;;;;5115283;28;20036;-79
2023/12/08 11:08:05;;;;;;;12.63;2.60;;;9.90;99.90;;;;;;5115055;28;20429;-82
2023/12/08 11:10:36;;;;;;;11.35;2.40;;;9.90;99.90;;;;;;5096797;28;20027;-81
2023/12/08 11:13:26;;;;;;;13.35;2.70;;;10.00;99.90;;;;;;5115219;28;20042;-81
2023/12/08 11:16:07;;;;;;;14.10;2.72;;;10.00;99.90;;;;;;5120930;27;20305;-81
2023/12/08 11:18:36;;;;;;;11.55;2.53;;;10.00;99.90;;;;;;5117430;27;20088;-82
2023/12/08 11:21:10;;;;;;;12.02;2.97;;;10.00;99.90;;;;;;5135440;27;20042;-82
2023/12/08 11:23:38;;;;;;;15.10;3.20;;;10.00;99.90;;;;;;5117099;27;20542;-83
2023/12/08 11:26:41;;;;;;;15.32;2.60;;;10.00;99.90;;;;;;5135743;27;20020;-82
2023/12/08 11:29:41;;;;;;;9.57;2.40;;;10.00;99.90;;;;;;5134342;27;20034;-80
2023/12/08 11:32:29;;;;;;;16.27;2.92;;;10.00;99.90;;;;;;5134047;27;20345;-81
2023/12/08 11:35:04;;;;;;;14.93;2.78;;;9.90;99.90;;;;;;5115391;27;20142;-84
2023/12/08 11:37:33;;;;;;;12.77;2.42;;;9.90;99.90;;;;;;5134449;27;20037;-82
2023/12/08 11:40:12;;;;;;;16.63;2.80;;;10.00;99.90;;;;;;5134534;27;20420;-82
2023/12/08 11:42:39;;;;;;;13.73;2.60;;;10.00;99.90;;;;;;5115335;27;20037;-83
2023/12/08 11:45:10;;;;;;;11.88;2.88;;;10.10;99.90;;;;;;5134665;27;20023;-81
2023/12/08 11:47:37;;;;;;;16.20;2.88;;;10.20;99.90;;;;;;5116606;27;20038;-82
2023/12/08 11:50:10;;;;;;;15.98;2.80;;;10.30;99.90;;;;;;5134276;27;20102;-80
2023/12/08 11:52:37;;;;;;;11.98;2.78;;;10.40;99.90;;;;;;5134777;27;20046;-82
2023/12/08 11:55:09;;;;;;;8.45;2.30;;;10.40;99.90;;;;;;5135288;27;20106;-81
2023/12/08 11:57:40;;;;;;;12.27;2.75;;;10.50;99.90;;;;;;5135551;27;20046;-80
2023/12/08 12:00:11;;;;;;;14.70;2.63;;;10.40;99.90;;;;;;5099611;27;20428;-80
2023/12/08 12:02:42;;;;;;;9.73;2.20;;;10.50;99.90;;;;;;5135175;27;20114;-81
2023/12/08 12:05:10;;;;;;;17.70;3.30;;;10.40;99.90;;;;;;5116495;27;20054;-80
2023/12/08 12:07:37;;;;;;;13.85;3.10;;;10.40;99.90;;;;;;5133999;27;20332;-81
2023/12/08 12:10:07;;;;;;;10.60;2.60;;;10.40;99.90;;;;;;5115634;27;20049;-81
2023/12/08 12:12:36;;;;;;;10.82;2.80;;;10.40;99.90;;;;;;5116071;27;20061;-80
2023/12/08 12:15:06;;;;;;;12.00;2.60;;;10.30;99.90;;;;;;5134309;27;20468;-81
2023/12/08 12:17:32;;;;;;;15.35;3.30;;;10.20;99.90;;;;;;5134433;27;20027;-82
2023/12/08 12:19:58;;;;;;;11.88;2.80;;;10.20;99.90;;;;;;5134029;27;20035;-81
2023/12/08 12:22:24;;;;;;;11.88;2.25;;;10.20;99.90;;;;;;5134693;27;20026;-81
2023/12/08 12:24:50;;;;;;;12.68;2.90;;;10.20;99.90;;;;;;5115433;27;20069;-81
2023/12/08 12:27:15;;;;;;;12.55;2.58;;;10.30;99.90;;;;;;5116226;27;20066;-81
2023/12/08 12:29:46;;;;;;;18.75;3.80;;;10.30;99.90;;;;;;5134503;27;20023;-81
2023/12/08 12:32:12;;;;;;;12.48;2.83;;;10.30;99.90;;;;;;5116243;27;20024;-81
2023/12/08 12:34:38;;;;;;;14.55;3.22;;;10.40;99.90;;;;;;5134231;27;20091;-79
2023/12/08 12:37:08;;;;;;;12.30;3.22;;;10.40;99.90;;;;;;5115485;27;20031;-81
2023/12/08 12:39:34;;;;;;;13.00;2.80;;;10.40;99.90;;;;;;5134264;27;20131;-80
2023/12/08 12:42:01;;;;;;;13.82;3.13;;;10.50;99.90;;;;;;5114987;27;20104;-80
2023/12/08 12:44:40;;;;;;;14.10;2.83;;;10.60;99.90;;;;;;5133828;27;20028;-80